sensor_id;sensor_type;location;lat;lon;timestamp;pressure;altitude;pressure_sealevel;temperature;humidity
13767;BME280;47980;48.794;9.176;2023-06-14T00:00:29;97720.88;;;17.49;49.82
13767;BME280;47980;48.794;9.176;2023-06-14T00:03:01;97719.38;;;17.51;50.27
13767;BME280;47980;48.794;9.176;2023-06-14T00:05:34;97724.31;;;17.49;50.48
13767;BME280;47980;48.794;9.176;2023-06-14T00:08:10;97722.03;;;17.48;50.30
13767;BME280;47980;48.794;9.176;2023-06-14T00:10:41;97725.88;;;17.47;49.60
13767;BME280;47980;48.794;9.176;2023-06-14T00:13:13;97723.97;;;17.51;49.49
13767;BME280;47980;48.794;9.176;2023-06-14T00:15:45;97720.88;;;17.42;48.18
13767;BME280;47980;48.794;9.176;2023-06-14T00:18:17;97724.66;;;17.33;48.72
13767;BME280;47980;48.794;9.176;2023-06-14T00:20:49;97734.28;;;17.42;47.85
13767;BME280;47980;48.794;9.176;2023-06-14T00:23:22;97733.94;;;17.68;46.53
13767;BME280;47980;48.794;9.176;2023-06-14T00:25:53;97737.75;;;17.60;47.04
13767;BME280;47980;48.794;9.176;2023-06-14T00:28:25;97731.22;;;17.47;47.69
13767;BME280;47980;48.794;9.176;2023-06-14T00:30:56;97730.06;;;17.37;48.00
13767;BME280;47980;48.794;9.176;2023-06-14T00:33:28;97735.78;;;17.28;48.16
13767;BME280;47980;48.794;9.176;2023-06-14T00:35:59;97725.03;;;17.25;49.48
13767;BME280;47980;48.794;9.176;2023-06-14T00:38:32;97732.22;;;17.06;52.08
13767;BME280;47980;48.794;9.176;2023-06-14T00:41:04;97736.41;;;16.97;52.43
13767;BME280;47980;48.794;9.176;2023-06-14T00:43:35;97728.66;;;16.84;50.82
13767;BME280;47980;48.794;9.176;2023-06-14T00:46:07;97724.91;;;16.93;50.33
13767;BME280;47980;48.794;9.176;2023-06-14T00:48:39;97723.75;;;16.97;50.32
13767;BME280;47980;48.794;9.176;2023-06-14T00:51:11;97725.31;;;17.02;50.75
13767;BME280;47980;48.794;9.176;2023-06-14T00:53:44;97727.16;;;16.91;51.91
13767;BME280;47980;48.794;9.176;2023-06-14T00:56:17;97722.16;;;16.82;51.93
13767;BME280;47980;48.794;9.176;2023-06-14T00:58:51;97724.34;;;16.69;53.17
13767;BME280;47980;48.794;9.176;2023-06-14T01:01:23;97722.81;;;16.68;54.24
13767;BME280;47980;48.794;9.176;2023-06-14T01:03:54;97728.91;;;16.65;52.64
13767;BME280;47980;48.794;9.176;2023-06-14T01:06:32;97734.59;;;16.56;53.26
13767;BME280;47980;48.794;9.176;2023-06-14T01:09:11;97731.44;;;16.44;54.01
13767;BME280;47980;48.794;9.176;2023-06-14T01:11:51;97731.84;;;16.46;52.92
13767;BME280;47980;48.794;9.176;2023-06-14T01:14:27;97739.13;;;16.45;52.33
13767;BME280;47980;48.794;9.176;2023-06-14T01:16:59;97736.06;;;16.47;53.88
13767;BME280;47980;48.794;9.176;2023-06-14T01:19:32;97739.19;;;16.56;52.09
13767;BME280;47980;48.794;9.176;2023-06-14T01:22:04;97746.88;;;16.61;53.15
13767;BME280;47980;48.794;9.176;2023-06-14T01:24:37;97744.47;;;16.45;53.68
13767;BME280;47980;48.794;9.176;2023-06-14T01:27:09;97737.88;;;16.32;55.12
13767;BME280;47980;48.794;9.176;2023-06-14T01:29:43;97745.13;;;16.31;55.76
13767;BME280;47980;48.794;9.176;2023-06-14T01:32:16;97746.59;;;16.22;55.99
13767;BME280;47980;48.794;9.176;2023-06-14T01:34:48;97743.78;;;16.07;56.90
13767;BME280;47980;48.794;9.176;2023-06-14T01:37:20;97747.19;;;16.04;57.24
13767;BME280;47980;48.794;9.176;2023-06-14T01:39:54;97735.31;;;15.98;54.32
13767;BME280;47980;48.794;9.176;2023-06-14T01:42:27;97742.56;;;15.98;55.97
13767;BME280;47980;48.794;9.176;2023-06-14T01:44:58;97731.53;;;16.03;55.59
13767;BME280;47980;48.794;9.176;2023-06-14T01:47:31;97735.63;;;15.93;54.93
13767;BME280;47980;48.794;9.176;2023-06-14T01:50:05;97738.72;;;15.95;53.95
13767;BME280;47980;48.794;9.176;2023-06-14T01:52:37;97737.59;;;16.00;55.90
13767;BME280;47980;48.794;9.176;2023-06-14T01:55:10;97739.50;;;15.99;54.62
13767;BME280;47980;48.794;9.176;2023-06-14T01:57:42;97736.69;;;15.81;55.37
13767;BME280;47980;48.794;9.176;2023-06-14T02:00:14;97737.44;;;15.82;56.16
13767;BME280;47980;48.794;9.176;2023-06-14T02:02:46;97742.00;;;15.78;54.73
13767;BME280;47980;48.794;9.176;2023-06-14T02:05:19;97738.59;;;15.81;56.80
13767;BME280;47980;48.794;9.176;2023-06-14T02:07:51;97728.66;;;15.81;56.81
13767;BME280;47980;48.794;9.176;2023-06-14T02:10:25;97738.91;;;15.76;56.12
13767;BME280;47980;48.794;9.176;2023-06-14T02:12:56;97740.75;;;15.68;56.39
13767;BME280;47980;48.794;9.176;2023-06-14T02:15:28;97743.72;;;15.63;56.36
13767;BME280;47980;48.794;9.176;2023-06-14T02:18:04;97744.50;;;15.63;57.25
13767;BME280;47980;48.794;9.176;2023-06-14T02:20:36;97742.97;;;15.62;56.62
13767;BME280;47980;48.794;9.176;2023-06-14T02:23:07;97751.81;;;15.67;58.16
13767;BME280;47980;48.794;9.176;2023-06-14T02:25:40;97744.44;;;15.60;57.41
13767;BME280;47980;48.794;9.176;2023-06-14T02:28:13;97741.75;;;15.56;58.48
13767;BME280;47980;48.794;9.176;2023-06-14T02:30:44;97740.91;;;15.49;59.61
13767;BME280;47980;48.794;9.176;2023-06-14T02:33:16;97744.13;;;15.65;57.00
13767;BME280;47980;48.794;9.176;2023-06-14T02:35:47;97743.41;;;15.68;58.70
13767;BME280;47980;48.794;9.176;2023-06-14T02:38:20;97740.59;;;15.57;60.44
13767;BME280;47980;48.794;9.176;2023-06-14T02:40:53;97742.56;;;15.64;58.99
13767;BME280;47980;48.794;9.176;2023-06-14T02:43:24;97737.97;;;15.61;59.93
13767;BME280;47980;48.794;9.176;2023-06-14T02:45:56;97744.66;;;15.44;59.22
13767;BME280;47980;48.794;9.176;2023-06-14T02:48:27;97740.72;;;15.34;59.12
13767;BME280;47980;48.794;9.176;2023-06-14T02:50:59;97736.44;;;15.26;59.31
13767;BME280;47980;48.794;9.176;2023-06-14T02:53:31;97740.34;;;15.32;60.53
13767;BME280;47980;48.794;9.176;2023-06-14T02:56:04;97737.59;;;15.25;58.34
13767;BME280;47980;48.794;9.176;2023-06-14T02:58:36;97745.59;;;15.25;58.99
13767;BME280;47980;48.794;9.176;2023-06-14T03:01:07;97748.19;;;15.18;57.57
13767;BME280;47980;48.794;9.176;2023-06-14T03:03:43;97745.91;;;15.20;58.11
13767;BME280;47980;48.794;9.176;2023-06-14T03:06:14;97742.66;;;15.04;59.23
13767;BME280;47980;48.794;9.176;2023-06-14T03:08:46;97747.59;;;15.02;59.53
13767;BME280;47980;48.794;9.176;2023-06-14T03:11:20;97745.25;;;14.97;60.73
13767;BME280;47980;48.794;9.176;2023-06-14T03:13:52;97749.81;;;14.96;60.07
13767;BME280;47980;48.794;9.176;2023-06-14T03:16:25;97748.59;;;14.90;59.83
13767;BME280;47980;48.794;9.176;2023-06-14T03:19:00;97758.13;;;14.91;59.07
13767;BME280;47980;48.794;9.176;2023-06-14T03:21:31;97755.06;;;14.89;59.98
13767;BME280;47980;48.794;9.176;2023-06-14T03:24:05;97756.22;;;14.91;61.84
13767;BME280;47980;48.794;9.176;2023-06-14T03:26:38;97758.94;;;14.95;60.73
13767;BME280;47980;48.794;9.176;2023-06-14T03:29:11;97758.75;;;14.81;62.20
13767;BME280;47980;48.794;9.176;2023-06-14T03:31:57;97773.50;;;14.98;62.00
13767;BME280;47980;48.794;9.176;2023-06-14T03:34:29;97774.81;;;14.84;62.10
13767;BME280;47980;48.794;9.176;2023-06-14T03:37:00;97770.81;;;14.98;62.19
13767;BME280;47980;48.794;9.176;2023-06-14T03:39:32;97773.50;;;14.98;61.96
13767;BME280;47980;48.794;9.176;2023-06-14T03:42:06;97778.69;;;15.17;60.92
13767;BME280;47980;48.794;9.176;2023-06-14T03:44:38;97774.56;;;15.53;59.58
13767;BME280;47980;48.794;9.176;2023-06-14T03:47:09;97779.28;;;16.01;57.16
13767;BME280;47980;48.794;9.176;2023-06-14T03:49:41;97783.94;;;16.55;57.06
13767;BME280;47980;48.794;9.176;2023-06-14T03:52:12;97780.13;;;17.15;55.86
13767;BME280;47980;48.794;9.176;2023-06-14T03:54:46;97789.09;;;17.48;54.78
13767;BME280;47980;48.794;9.176;2023-06-14T03:57:19;97792.66;;;17.80;55.00
13767;BME280;47980;48.794;9.176;2023-06-14T03:59:52;97790.06;;;18.31;53.25
13767;BME280;47980;48.794;9.176;2023-06-14T04:02:23;97793.13;;;18.65;51.69
13767;BME280;47980;48.794;9.176;2023-06-14T04:04:55;97791.97;;;18.76;50.26
13767;BME280;47980;48.794;9.176;2023-06-14T04:07:26;97798.81;;;19.13;51.19
13767;BME280;47980;48.794;9.176;2023-06-14T04:09:58;97801.34;;;19.63;51.34
13767;BME280;47980;48.794;9.176;2023-06-14T04:12:31;97796.22;;;19.90;47.33
13767;BME280;47980;48.794;9.176;2023-06-14T04:15:04;97801.38;;;20.26;48.38
13767;BME280;47980;48.794;9.176;2023-06-14T04:17:37;97813.31;;;20.77;45.70
13767;BME280;47980;48.794;9.176;2023-06-14T04:20:08;97800.13;;;21.24;44.53
13767;BME280;47980;48.794;9.176;2023-06-14T04:22:41;97811.22;;;21.33;43.79
13767;BME280;47980;48.794;9.176;2023-06-14T04:25:13;97812.84;;;21.58;45.05
13767;BME280;47980;48.794;9.176;2023-06-14T04:27:46;97819.09;;;21.82;42.77
13767;BME280;47980;48.794;9.176;2023-06-14T04:30:18;97818.09;;;21.38;46.30
13767;BME280;47980;48.794;9.176;2023-06-14T04:32:49;97818.81;;;21.42;44.67
13767;BME280;47980;48.794;9.176;2023-06-14T04:35:25;97815.59;;;21.85;42.81
13767;BME280;47980;48.794;9.176;2023-06-14T04:37:57;97814.94;;;22.04;41.94
13767;BME280;47980;48.794;9.176;2023-06-14T04:40:29;97810.88;;;22.70;41.17
13767;BME280;47980;48.794;9.176;2023-06-14T04:43:02;97811.59;;;23.18;39.80
13767;BME280;47980;48.794;9.176;2023-06-14T04:45:35;97813.31;;;22.38;43.11
13767;BME280;47980;48.794;9.176;2023-06-14T04:48:07;97818.13;;;20.97;44.54
13767;BME280;47980;48.794;9.176;2023-06-14T04:50:38;97830.63;;;20.24;44.97
13767;BME280;47980;48.794;9.176;2023-06-14T04:53:11;97836.59;;;19.94;45.93
13767;BME280;47980;48.794;9.176;2023-06-14T04:55:43;97837.69;;;20.00;46.16
13767;BME280;47980;48.794;9.176;2023-06-14T04:58:16;97836.34;;;19.56;47.45
13767;BME280;47980;48.794;9.176;2023-06-14T05:00:48;97842.22;;;19.15;47.78
13767;BME280;47980;48.794;9.176;2023-06-14T05:03:19;97844.13;;;19.26;49.26
13767;BME280;47980;48.794;9.176;2023-06-14T05:05:51;97847.19;;;19.24;48.69
13767;BME280;47980;48.794;9.176;2023-06-14T05:08:23;97851.09;;;18.87;47.41
13767;BME280;47980;48.794;9.176;2023-06-14T05:10:55;97851.06;;;19.16;45.81
13767;BME280;47980;48.794;9.176;2023-06-14T05:13:27;97854.06;;;19.46;46.14
13767;BME280;47980;48.794;9.176;2023-06-14T05:15:59;97848.69;;;19.43;45.26
13767;BME280;47980;48.794;9.176;2023-06-14T05:18:31;97853.22;;;19.60;45.60
13767;BME280;47980;48.794;9.176;2023-06-14T05:21:04;97849.09;;;19.34;45.70
13767;BME280;47980;48.794;9.176;2023-06-14T05:23:35;97852.50;;;19.49;45.32
13767;BME280;47980;48.794;9.176;2023-06-14T05:26:07;97851.69;;;19.74;44.94
13767;BME280;47980;48.794;9.176;2023-06-14T05:28:40;97854.00;;;19.64;45.49
13767;BME280;47980;48.794;9.176;2023-06-14T05:31:11;97857.13;;;19.41;46.42
13767;BME280;47980;48.794;9.176;2023-06-14T05:33:43;97852.34;;;19.95;46.46
13767;BME280;47980;48.794;9.176;2023-06-14T05:36:15;97849.34;;;19.79;44.73
13767;BME280;47980;48.794;9.176;2023-06-14T05:38:46;97853.53;;;19.91;45.75
13767;BME280;47980;48.794;9.176;2023-06-14T05:41:18;97853.34;;;20.27;43.69
13767;BME280;47980;48.794;9.176;2023-06-14T05:43:53;97864.00;;;20.41;44.47
13767;BME280;47980;48.794;9.176;2023-06-14T05:46:24;97867.41;;;19.82;45.43
13767;BME280;47980;48.794;9.176;2023-06-14T05:48:56;97858.34;;;20.21;45.02
13767;BME280;47980;48.794;9.176;2023-06-14T05:51:28;97858.19;;;20.50;45.19
13767;BME280;47980;48.794;9.176;2023-06-14T05:54:00;97859.59;;;20.68;43.98
13767;BME280;47980;48.794;9.176;2023-06-14T05:56:31;97857.28;;;20.71;44.26
13767;BME280;47980;48.794;9.176;2023-06-14T05:59:04;97864.47;;;20.84;43.79
13767;BME280;47980;48.794;9.176;2023-06-14T06:01:35;97862.59;;;20.78;43.37
13767;BME280;47980;48.794;9.176;2023-06-14T06:04:07;97861.28;;;20.52;44.21
13767;BME280;47980;48.794;9.176;2023-06-14T06:06:39;97865.50;;;20.49;42.99
13767;BME280;47980;48.794;9.176;2023-06-14T06:09:11;97867.50;;;20.38;44.18
13767;BME280;47980;48.794;9.176;2023-06-14T06:11:59;97867.41;;;20.56;44.54
13767;BME280;47980;48.794;9.176;2023-06-14T06:14:46;97867.91;;;20.88;45.00
13767;BME280;47980;48.794;9.176;2023-06-14T06:17:17;97866.91;;;20.68;44.66
13767;BME280;47980;48.794;9.176;2023-06-14T06:19:49;97873.25;;;20.40;44.33
13767;BME280;47980;48.794;9.176;2023-06-14T06:22:20;97877.63;;;20.79;43.63
13767;BME280;47980;48.794;9.176;2023-06-14T06:24:52;97876.84;;;21.20;43.36
13767;BME280;47980;48.794;9.176;2023-06-14T06:27:24;97880.25;;;20.86;43.55
13767;BME280;47980;48.794;9.176;2023-06-14T06:29:57;97879.13;;;21.25;44.09
13767;BME280;47980;48.794;9.176;2023-06-14T06:32:28;97877.28;;;21.18;43.53
13767;BME280;47980;48.794;9.176;2023-06-14T06:35:00;97872.56;;;21.63;42.67
13767;BME280;47980;48.794;9.176;2023-06-14T06:37:31;97882.84;;;21.76;42.21
13767;BME280;47980;48.794;9.176;2023-06-14T06:40:03;97878.34;;;21.96;42.46
13767;BME280;47980;48.794;9.176;2023-06-14T06:42:42;97878.28;;;22.00;42.04
13767;BME280;47980;48.794;9.176;2023-06-14T06:45:15;97872.78;;;22.38;42.21
13767;BME280;47980;48.794;9.176;2023-06-14T06:47:46;97884.19;;;21.19;42.25
13767;BME280;47980;48.794;9.176;2023-06-14T06:50:18;97885.91;;;20.99;42.96
13767;BME280;47980;48.794;9.176;2023-06-14T06:52:50;97884.19;;;21.19;43.79
13767;BME280;47980;48.794;9.176;2023-06-14T06:55:21;97899.44;;;20.95;43.24
13767;BME280;47980;48.794;9.176;2023-06-14T06:57:53;97895.16;;;21.01;42.88
13767;BME280;47980;48.794;9.176;2023-06-14T07:00:26;97903.72;;;21.34;43.00
13767;BME280;47980;48.794;9.176;2023-06-14T07:02:58;97906.63;;;21.54;42.63
13767;BME280;47980;48.794;9.176;2023-06-14T07:05:29;97908.47;;;21.60;41.68
13767;BME280;47980;48.794;9.176;2023-06-14T07:08:01;97914.63;;;21.65;41.33
13767;BME280;47980;48.794;9.176;2023-06-14T07:10:32;97906.44;;;21.30;41.71
13767;BME280;47980;48.794;9.176;2023-06-14T07:13:04;97908.25;;;21.44;41.94
13767;BME280;47980;48.794;9.176;2023-06-14T07:15:37;97911.88;;;21.27;43.36
13767;BME280;47980;48.794;9.176;2023-06-14T07:18:09;97910.78;;;21.62;42.10
13767;BME280;47980;48.794;9.176;2023-06-14T07:20:40;97917.22;;;21.30;41.48
13767;BME280;47980;48.794;9.176;2023-06-14T07:23:16;97919.13;;;21.37;41.46
13767;BME280;47980;48.794;9.176;2023-06-14T07:25:47;97919.00;;;21.85;42.28
13767;BME280;47980;48.794;9.176;2023-06-14T07:28:19;97922.56;;;21.79;40.82
13767;BME280;47980;48.794;9.176;2023-06-14T07:30:52;97927.59;;;21.77;40.91
13767;BME280;47980;48.794;9.176;2023-06-14T07:33:24;97937.44;;;22.25;41.66
13767;BME280;47980;48.794;9.176;2023-06-14T07:35:55;97934.91;;;22.10;41.67
13767;BME280;47980;48.794;9.176;2023-06-14T07:38:27;97930.28;;;22.42;40.65
13767;BME280;47980;48.794;9.176;2023-06-14T07:40:59;97937.13;;;22.50;40.06
13767;BME280;47980;48.794;9.176;2023-06-14T07:43:30;97937.44;;;22.25;41.50
13767;BME280;47980;48.794;9.176;2023-06-14T07:46:04;97939.75;;;22.26;41.53
13767;BME280;47980;48.794;9.176;2023-06-14T07:48:36;97946.19;;;22.36;42.40
13767;BME280;47980;48.794;9.176;2023-06-14T07:51:07;97934.84;;;22.72;40.93
13767;BME280;47980;48.794;9.176;2023-06-14T07:53:39;97946.19;;;22.36;39.94
13767;BME280;47980;48.794;9.176;2023-06-14T07:56:11;97946.28;;;22.29;40.55
13767;BME280;47980;48.794;9.176;2023-06-14T07:58:42;97942.38;;;21.99;41.10
13767;BME280;47980;48.794;9.176;2023-06-14T08:01:15;97934.47;;;22.73;40.60
13767;BME280;47980;48.794;9.176;2023-06-14T08:03:47;97939.97;;;22.39;41.45
13767;BME280;47980;48.794;9.176;2023-06-14T08:06:19;97932.31;;;23.12;40.86
13767;BME280;47980;48.794;9.176;2023-06-14T08:08:50;97940.28;;;22.45;42.01
13767;BME280;47980;48.794;9.176;2023-06-14T08:11:22;97932.53;;;22.74;42.41
13767;BME280;47980;48.794;9.176;2023-06-14T08:13:54;97929.56;;;22.92;42.12
13767;BME280;47980;48.794;9.176;2023-06-14T08:16:27;97944.84;;;22.21;43.09
13767;BME280;47980;48.794;9.176;2023-06-14T08:19:00;97934.22;;;22.37;42.80
13767;BME280;47980;48.794;9.176;2023-06-14T08:21:32;97933.03;;;23.39;41.47
13767;BME280;47980;48.794;9.176;2023-06-14T08:24:03;97930.56;;;24.08;41.50
13767;BME280;47980;48.794;9.176;2023-06-14T08:26:35;97937.75;;;23.55;42.35
13767;BME280;47980;48.794;9.176;2023-06-14T08:29:07;97934.00;;;23.49;42.01
13767;BME280;47980;48.794;9.176;2023-06-14T08:31:39;97938.09;;;23.14;42.76
13767;BME280;47980;48.794;9.176;2023-06-14T08:34:11;97941.78;;;23.47;42.01
13767;BME280;47980;48.794;9.176;2023-06-14T08:36:42;97945.59;;;23.73;40.83
13767;BME280;47980;48.794;9.176;2023-06-14T08:39:14;97937.56;;;23.66;43.04
13767;BME280;47980;48.794;9.176;2023-06-14T08:41:46;97947.41;;;23.80;40.32
13767;BME280;47980;48.794;9.176;2023-06-14T08:44:18;97949.28;;;23.16;43.56
13767;BME280;47980;48.794;9.176;2023-06-14T08:46:51;97950.38;;;23.85;40.30
13767;BME280;47980;48.794;9.176;2023-06-14T08:49:24;97949.47;;;24.12;41.26
13767;BME280;47980;48.794;9.176;2023-06-14T08:51:57;97946.44;;;23.23;42.20
13767;BME280;47980;48.794;9.176;2023-06-14T08:54:29;97945.94;;;23.95;41.67
13767;BME280;47980;48.794;9.176;2023-06-14T08:57:03;97953.88;;;23.62;40.87
13767;BME280;47980;48.794;9.176;2023-06-14T08:59:37;97942.59;;;24.07;40.12
13767;BME280;47980;48.794;9.176;2023-06-14T09:02:15;97950.84;;;24.40;40.69
13767;BME280;47980;48.794;9.176;2023-06-14T09:04:48;97945.34;;;24.43;40.21
13767;BME280;47980;48.794;9.176;2023-06-14T09:07:20;97945.13;;;24.70;40.71
13767;BME280;47980;48.794;9.176;2023-06-14T09:10:06;97950.19;;;24.52;40.02
13767;BME280;47980;48.794;9.176;2023-06-14T09:12:39;97951.91;;;24.26;39.66
13767;BME280;47980;48.794;9.176;2023-06-14T09:15:10;97942.34;;;24.38;39.94
13767;BME280;47980;48.794;9.176;2023-06-14T09:17:45;97936.22;;;24.34;40.12
13767;BME280;47980;48.794;9.176;2023-06-14T09:20:17;97938.81;;;24.41;40.32
13767;BME280;47980;48.794;9.176;2023-06-14T09:22:49;97943.53;;;24.73;39.36
13767;BME280;47980;48.794;9.176;2023-06-14T09:25:20;97954.59;;;24.26;39.41
13767;BME280;47980;48.794;9.176;2023-06-14T09:27:53;97954.53;;;24.66;39.62
13767;BME280;47980;48.794;9.176;2023-06-14T09:30:24;97949.25;;;24.22;40.31
13767;BME280;47980;48.794;9.176;2023-06-14T09:32:57;97942.59;;;24.63;40.07
13767;BME280;47980;48.794;9.176;2023-06-14T09:35:31;97939.03;;;24.99;38.38
13767;BME280;47980;48.794;9.176;2023-06-14T09:38:03;97943.25;;;25.49;37.65
13767;BME280;47980;48.794;9.176;2023-06-14T09:40:35;97949.91;;;24.99;37.74
13767;BME280;47980;48.794;9.176;2023-06-14T09:43:10;97945.88;;;25.36;39.36
13767;BME280;47980;48.794;9.176;2023-06-14T09:45:42;97939.78;;;25.00;38.73
13767;BME280;47980;48.794;9.176;2023-06-14T09:48:17;97948.81;;;25.13;38.10
13767;BME280;47980;48.794;9.176;2023-06-14T09:50:50;97950.00;;;25.12;37.05
13767;BME280;47980;48.794;9.176;2023-06-14T09:53:22;97945.44;;;25.38;37.84
13767;BME280;47980;48.794;9.176;2023-06-14T09:55:54;97956.94;;;26.04;38.45
13767;BME280;47980;48.794;9.176;2023-06-14T09:58:29;97940.28;;;24.94;39.29
13767;BME280;47980;48.794;9.176;2023-06-14T10:01:02;97951.19;;;24.22;39.50
13767;BME280;47980;48.794;9.176;2023-06-14T10:03:38;97945.00;;;24.41;39.36
13767;BME280;47980;48.794;9.176;2023-06-14T10:06:09;97934.53;;;24.92;38.20
13767;BME280;47980;48.794;9.176;2023-06-14T10:08:42;97939.97;;;24.92;38.25
13767;BME280;47980;48.794;9.176;2023-06-14T10:11:15;97938.56;;;25.50;38.76
13767;BME280;47980;48.794;9.176;2023-06-14T10:13:47;97941.75;;;24.99;39.09
13767;BME280;47980;48.794;9.176;2023-06-14T10:16:23;97947.81;;;23.78;39.16
13767;BME280;47980;48.794;9.176;2023-06-14T10:19:01;97943.16;;;23.78;38.95
13767;BME280;47980;48.794;9.176;2023-06-14T10:21:41;97941.66;;;23.54;39.63
13767;BME280;47980;48.794;9.176;2023-06-14T10:24:16;97940.75;;;24.20;38.73
13767;BME280;47980;48.794;9.176;2023-06-14T10:26:53;97931.72;;;24.96;37.95
13767;BME280;47980;48.794;9.176;2023-06-14T10:29:25;97939.50;;;24.45;38.64
13767;BME280;47980;48.794;9.176;2023-06-14T10:31:58;97938.59;;;23.75;38.30
13767;BME280;47980;48.794;9.176;2023-06-14T10:34:32;97936.63;;;23.96;39.35
13767;BME280;47980;48.794;9.176;2023-06-14T10:37:04;97934.50;;;24.23;37.44
13767;BME280;47980;48.794;9.176;2023-06-14T10:39:40;97931.81;;;24.60;35.78
13767;BME280;47980;48.794;9.176;2023-06-14T10:42:13;97932.13;;;25.27;36.25
13767;BME280;47980;48.794;9.176;2023-06-14T10:44:45;97933.06;;;25.37;36.62
13767;BME280;47980;48.794;9.176;2023-06-14T10:47:25;97931.88;;;25.38;37.05
13767;BME280;47980;48.794;9.176;2023-06-14T10:50:04;97934.00;;;25.30;34.86
13767;BME280;47980;48.794;9.176;2023-06-14T10:52:38;97932.84;;;25.31;34.36
13767;BME280;47980;48.794;9.176;2023-06-14T10:55:11;97935.75;;;26.37;34.88
13767;BME280;47980;48.794;9.176;2023-06-14T10:57:45;97936.44;;;25.86;34.62
13767;BME280;47980;48.794;9.176;2023-06-14T11:00:21;97932.84;;;26.57;34.14
13767;BME280;47980;48.794;9.176;2023-06-14T11:03:31;97931.50;;;27.00;33.18
13767;BME280;47980;48.794;9.176;2023-06-14T11:06:14;97934.47;;;26.80;32.34
13767;BME280;47980;48.794;9.176;2023-06-14T11:09:13;97924.09;;;25.07;34.65
13767;BME280;47980;48.794;9.176;2023-06-14T11:11:51;97928.53;;;25.17;35.34
13767;BME280;47980;48.794;9.176;2023-06-14T11:14:25;97924.63;;;25.48;34.20
13767;BME280;47980;48.794;9.176;2023-06-14T11:16:56;97913.28;;;25.65;32.56
13767;BME280;47980;48.794;9.176;2023-06-14T11:19:28;97917.78;;;25.72;32.42
13767;BME280;47980;48.794;9.176;2023-06-14T11:22:01;97921.38;;;26.11;32.33
13767;BME280;47980;48.794;9.176;2023-06-14T11:24:33;97923.03;;;25.79;32.39
13767;BME280;47980;48.794;9.176;2023-06-14T11:27:05;97926.97;;;25.62;33.51
13767;BME280;47980;48.794;9.176;2023-06-14T11:29:39;97924.16;;;25.36;33.53
13767;BME280;47980;48.794;9.176;2023-06-14T11:32:18;97925.03;;;25.62;32.96
13767;BME280;47980;48.794;9.176;2023-06-14T11:34:50;97932.38;;;25.78;32.69
13767;BME280;47980;48.794;9.176;2023-06-14T11:37:23;97920.38;;;26.17;32.44
13767;BME280;47980;48.794;9.176;2023-06-14T11:39:56;97927.88;;;26.13;32.63
13767;BME280;47980;48.794;9.176;2023-06-14T11:42:28;97920.59;;;25.98;31.54
13767;BME280;47980;48.794;9.176;2023-06-14T11:45:00;97920.94;;;26.89;31.04
13767;BME280;47980;48.794;9.176;2023-06-14T11:47:32;97926.38;;;26.25;32.00
13767;BME280;47980;48.794;9.176;2023-06-14T11:50:05;97931.41;;;25.56;32.24
13767;BME280;47980;48.794;9.176;2023-06-14T11:52:38;97929.59;;;24.71;33.81
13767;BME280;47980;48.794;9.176;2023-06-14T11:55:10;97913.00;;;24.85;32.07
13767;BME280;47980;48.794;9.176;2023-06-14T11:57:42;97916.38;;;24.57;33.98
13767;BME280;47980;48.794;9.176;2023-06-14T12:00:19;97913.13;;;24.62;34.25
13767;BME280;47980;48.794;9.176;2023-06-14T12:02:56;97913.47;;;25.29;33.39
13767;BME280;47980;48.794;9.176;2023-06-14T12:05:28;97909.34;;;25.54;33.29
13767;BME280;47980;48.794;9.176;2023-06-14T12:08:03;97910.84;;;26.26;31.89
13767;BME280;47980;48.794;9.176;2023-06-14T12:10:39;97897.56;;;26.53;32.46
13767;BME280;47980;48.794;9.176;2023-06-14T12:13:11;97923.66;;;26.12;32.51
13767;BME280;47980;48.794;9.176;2023-06-14T12:15:42;97919.81;;;25.68;32.82
13767;BME280;47980;48.794;9.176;2023-06-14T12:18:14;97913.63;;;25.97;32.45
13767;BME280;47980;48.794;9.176;2023-06-14T12:20:49;97915.66;;;26.47;32.35
13767;BME280;47980;48.794;9.176;2023-06-14T12:23:22;97914.84;;;26.72;32.16
13767;BME280;47980;48.794;9.176;2023-06-14T12:25:54;97913.53;;;26.00;32.13
13767;BME280;47980;48.794;9.176;2023-06-14T12:28:31;97908.34;;;25.48;31.25
13767;BME280;47980;48.794;9.176;2023-06-14T12:31:02;97915.94;;;25.24;33.91
13767;BME280;47980;48.794;9.176;2023-06-14T12:33:34;97910.78;;;24.64;34.51
13767;BME280;47980;48.794;9.176;2023-06-14T12:36:07;97904.94;;;25.14;34.48
13767;BME280;47980;48.794;9.176;2023-06-14T12:38:41;97920.34;;;25.92;34.00
13767;BME280;47980;48.794;9.176;2023-06-14T12:41:12;97905.88;;;25.95;34.41
13767;BME280;47980;48.794;9.176;2023-06-14T12:43:45;97902.56;;;26.04;33.21
13767;BME280;47980;48.794;9.176;2023-06-14T12:46:16;97908.63;;;26.08;34.04
13767;BME280;47980;48.794;9.176;2023-06-14T12:48:48;97906.78;;;26.05;32.99
13767;BME280;47980;48.794;9.176;2023-06-14T12:51:20;97900.72;;;26.26;33.17
13767;BME280;47980;48.794;9.176;2023-06-14T12:53:54;97902.88;;;25.64;34.17
13767;BME280;47980;48.794;9.176;2023-06-14T12:56:25;97905.78;;;25.11;33.25
13767;BME280;47980;48.794;9.176;2023-06-14T12:58:57;97916.00;;;25.36;32.79
13767;BME280;47980;48.794;9.176;2023-06-14T13:01:29;97910.44;;;25.85;32.54
13767;BME280;47980;48.794;9.176;2023-06-14T13:04:00;97914.41;;;26.10;32.06
13767;BME280;47980;48.794;9.176;2023-06-14T13:06:32;97914.97;;;25.47;32.87
13767;BME280;47980;48.794;9.176;2023-06-14T13:09:05;97912.53;;;25.94;32.92
13767;BME280;47980;48.794;9.176;2023-06-14T13:11:36;97911.75;;;26.48;32.98
13767;BME280;47980;48.794;9.176;2023-06-14T13:14:08;97904.09;;;26.69;31.60
13767;BME280;47980;48.794;9.176;2023-06-14T13:16:40;97912.56;;;26.45;32.14
13767;BME280;47980;48.794;9.176;2023-06-14T13:19:12;97923.03;;;26.47;32.07
13767;BME280;47980;48.794;9.176;2023-06-14T13:21:43;97911.31;;;25.95;32.75
13767;BME280;47980;48.794;9.176;2023-06-14T13:24:16;97913.63;;;26.09;33.08
13767;BME280;47980;48.794;9.176;2023-06-14T13:26:48;97914.44;;;25.81;33.64
13767;BME280;47980;48.794;9.176;2023-06-14T13:29:19;97917.66;;;26.05;33.14